Time;durP1;ratioP1;P1;durP2;ratioP2;P2;SDS_P1;SDS_P2;PMS_P1;PMS_P2;Temp;Humidity;BMP_temperature;BMP_pressure;BME280_temperature;BME280_humidity;BME280_pressure;Samples;Min_cycle;Max_cycle;Signal;HPM_P1;HPM_P2
2022/11/28 00:00:34;;;;;;;10.32;6.00;;;;;;;13.95;100.00;101060.31;2081224;28;20118;-75
2022/11/28 00:01:56;;;;;;;9.45;6.10;;;;;;;13.98;100.00;101047.97;2091020;28;20045;-75
2022/11/28 00:03:18;;;;;;;9.07;5.90;;;;;;;13.98;100.00;101046.16;2086945;28;20437;-75
2022/11/28 00:04:40;;;;;;;9.90;6.10;;;;;;;13.96;100.00;101042.63;2084910;28;20052;-75
2022/11/28 00:06:04;;;;;;;12.65;6.90;;;;;;;13.95;100.00;101038.19;2082491;28;20049;-75
2022/11/28 00:07:27;;;;;;;9.52;6.47;;;;;;;13.95;100.00;101032.88;2084767;28;20072;-75
2022/11/28 00:08:49;;;;;;;9.90;6.28;;;;;;;13.97;100.00;101036.44;2082357;28;20071;-74
2022/11/28 00:10:12;;;;;;;10.45;6.40;;;;;;;13.98;100.00;101029.38;2084985;28;20143;-75
2022/11/28 00:11:36;;;;;;;9.38;5.70;;;;;;;13.97;100.00;101025.84;2089888;28;20044;-74
2022/11/28 00:12:57;;;;;;;10.88;6.68;;;;;;;13.96;100.00;101024.06;2083074;28;20044;-75
2022/11/28 00:14:20;;;;;;;9.10;6.28;;;;;;;13.94;100.00;101023.16;2078466;28;20045;-75
2022/11/28 00:15:42;;;;;;;9.52;5.97;;;;;;;13.94;100.00;101026.69;2082475;28;20033;-75
2022/11/28 00:17:04;;;;;;;12.27;6.22;;;;;;;13.93;100.00;101031.97;2093039;28;20521;-75
2022/11/28 00:18:28;;;;;;;8.35;5.90;;;;;;;13.92;100.00;101030.19;2087221;28;20433;-75
2022/11/28 00:19:49;;;;;;;10.93;5.97;;;;;;;13.90;100.00;101026.66;2092854;28;20045;-75
2022/11/28 00:21:14;;;;;;;8.45;5.40;;;;;;;13.88;100.00;101029.31;2087693;28;20094;-75
2022/11/28 00:22:36;;;;;;;8.68;5.25;;;;;;;13.85;100.00;101023.06;2082149;28;20044;-76
2022/11/28 00:24:01;;;;;;;10.10;5.78;;;;;;;13.85;100.00;101029.28;2090391;28;20150;-75
2022/11/28 00:25:22;;;;;;;8.80;5.35;;;;;;;13.84;100.00;101031.94;2093557;28;20442;-75
2022/11/28 00:26:44;;;;;;;7.25;5.38;;;;;;;13.84;100.00;101030.19;2084799;28;20053;-75
2022/11/28 00:28:06;;;;;;;8.90;5.55;;;;;;;13.84;100.00;101029.28;2081155;28;20048;-75
2022/11/28 00:29:28;;;;;;;12.82;5.80;;;;;;;13.86;100.00;101039.00;2076693;28;20068;-75
2022/11/28 00:30:49;;;;;;;8.20;5.05;;;;;;;13.89;100.00;101035.50;2084962;28;20443;-75
2022/11/28 00:32:12;;;;;;;8.15;4.85;;;;;;;13.90;100.00;101038.19;2099881;28;20681;-75
2022/11/28 00:33:33;;;;;;;7.90;5.53;;;;;;;13.92;100.00;101041.72;2097836;28;20041;-75
2022/11/28 00:34:56;;;;;;;8.13;5.00;;;;;;;13.92;100.00;101044.34;2094222;28;20068;-75
2022/11/28 00:36:17;;;;;;;7.43;4.75;;;;;;;13.90;100.00;101030.22;2092952;28;20048;-76
2022/11/28 00:37:40;;;;;;;8.60;5.20;;;;;;;13.89;100.00;101035.50;2092838;28;20064;-75
2022/11/28 00:39:04;;;;;;;9.40;6.68;;;;;;;13.88;100.00;101028.41;2091792;28;20044;-76
2022/11/28 00:40:26;;;;;;;7.63;5.22;;;;;;;13.88;100.00;101028.41;2093078;28;20041;-74
2022/11/28 00:41:49;;;;;;;8.25;5.28;;;;;;;13.90;100.00;101024.03;2086642;28;20060;-74
2022/11/28 00:43:11;;;;;;;8.02;5.00;;;;;;;13.92;100.00;101022.22;2082924;28;20088;-75
2022/11/28 00:44:34;;;;;;;8.90;5.35;;;;;;;13.94;100.00;101029.34;2082415;28;20072;-75
2022/11/28 00:45:55;;;;;;;10.10;5.28;;;;;;;13.95;100.00;101035.53;2084786;28;20340;-75
2022/11/28 00:47:17;;;;;;;9.98;5.47;;;;;;;13.94;100.00;101039.97;2084326;28;20053;-75
2022/11/28 00:48:39;;;;;;;7.65;5.07;;;;;;;13.95;100.00;101040.84;2092733;28;20074;-75
2022/11/28 00:50:01;;;;;;;10.85;4.97;;;;;;;13.93;100.00;101037.28;2095725;28;20132;-75
2022/11/28 00:51:25;;;;;;;7.57;4.80;;;;;;;13.94;100.00;101031.09;2087004;28;20045;-75
2022/11/28 00:52:47;;;;;;;8.23;4.97;;;;;;;13.96;100.00;101032.91;2090751;28;20043;-75
2022/11/28 00:54:12;;;;;;;21.70;13.35;;;;;;;13.99;100.00;101029.34;2092680;28;20459;-75
2022/11/28 00:55:33;;;;;;;11.95;7.25;;;;;;;14.02;100.00;101029.41;2084657;28;20095;-75
2022/11/28 00:56:55;;;;;;;8.30;5.72;;;;;;;14.05;100.00;101024.09;2082398;28;20037;-75
2022/11/28 00:58:17;;;;;;;9.30;4.97;;;;;;;14.07;100.00;101021.44;2092699;28;20305;-75
2022/11/28 00:59:39;;;;;;;8.55;4.65;;;;;;;14.04;100.00;101013.47;2102793;28;20044;-75
2022/11/28 01:01:07;;;;;;;8.13;5.03;;;;;;;14.05;100.00;101007.25;2089198;28;20082;-75
2022/11/28 01:02:30;;;;;;;9.02;5.18;;;;;;;14.05;100.00;101009.91;2085864;28;20045;-75
2022/11/28 01:03:54;;;;;;;6.18;4.32;;;;;;;14.07;100.00;101011.72;2087414;28;20041;-74
2022/11/28 01:05:17;;;;;;;9.10;4.63;;;;;;;14.08;100.00;101009.94;2094533;28;20131;-75
2022/11/28 01:06:41;;;;;;;10.10;6.10;;;;;;;14.11;100.00;101007.34;2093231;28;20044;-75
2022/11/28 01:08:02;;;;;;;8.80;5.20;;;;;;;14.08;100.00;101008.19;2098157;28;20060;-75
2022/11/28 01:09:26;;;;;;;10.25;5.82;;;;;;;14.08;100.00;101007.31;2089014;28;20162;-75
2022/11/28 01:10:48;;;;;;;9.77;5.20;;;;;;;14.07;100.00;101003.75;2093696;28;20049;-75
2022/11/28 01:12:10;;;;;;;7.95;5.13;;;;;;;14.09;100.00;101006.44;2081546;28;20091;-75
2022/11/28 01:13:31;;;;;;;7.35;4.80;;;;;;;14.11;100.00;101000.22;2094900;28;20099;-75
2022/11/28 01:14:54;;;;;;;7.88;5.07;;;;;;;14.14;100.00;101002.03;2088982;28;20080;-75
2022/11/28 01:16:16;;;;;;;9.20;5.10;;;;;;;14.16;100.00;100992.31;2094840;28;20139;-75
2022/11/28 01:17:39;;;;;;;7.40;4.88;;;;;;;14.17;100.00;100989.66;2099030;28;20052;-76
2022/11/28 01:19:01;;;;;;;8.50;5.07;;;;;;;14.17;100.00;100981.69;2091468;28;20041;-75
2022/11/28 01:20:22;;;;;;;9.20;5.50;;;;;;;14.19;100.00;100977.25;2102522;28;20040;-75
2022/11/28 01:21:45;;;;;;;9.65;5.32;;;;;;;14.19;100.00;100969.28;2099266;28;20051;-75
2022/11/28 01:23:07;;;;;;;8.27;5.22;;;;;;;14.18;100.00;100972.81;2096484;28;20052;-75
2022/11/28 01:24:32;;;;;;;8.65;5.28;;;;;;;14.18;100.00;100969.28;2093581;28;20049;-75
2022/11/28 01:25:53;;;;;;;7.28;4.70;;;;;;;14.17;100.00;100970.19;2089117;28;20043;-75
2022/11/28 01:27:16;;;;;;;8.38;5.35;;;;;;;14.15;100.00;100962.22;2091453;28;20049;-75
2022/11/28 01:28:37;;;;;;;6.72;4.78;;;;;;;14.14;100.00;100954.22;2090760;28;20520;-75
2022/11/28 01:29:59;;;;;;;7.22;4.78;;;;;;;14.13;100.00;100955.09;2097006;28;20130;-75
2022/11/28 01:31:24;;;;;;;9.75;5.55;;;;;;;14.13;100.00;100952.44;2093221;28;20052;-75
2022/11/28 01:32:45;;;;;;;9.20;5.90;;;;;;;14.12;100.00;100950.66;2087349;28;20425;-75
2022/11/28 01:34:08;;;;;;;9.43;5.65;;;;;;;14.10;100.00;100948.03;2083308;28;20048;-75
2022/11/28 01:35:30;;;;;;;9.35;5.57;;;;;;;14.08;100.00;100960.41;2083339;28;20425;-75
2022/11/28 01:36:53;;;;;;;11.63;5.90;;;;;;;14.07;100.00;100953.31;2083051;28;20064;-75
2022/11/28 01:38:14;;;;;;;8.00;5.38;;;;;;;14.06;100.00;100948.88;2094127;28;20519;-75
2022/11/28 01:39:39;;;;;;;9.27;6.07;;;;;;;14.07;100.00;100955.97;2085882;28;20041;-75
2022/11/28 01:41:01;;;;;;;9.05;5.97;;;;;;;14.08;100.00;100952.44;2091547;28;20056;-74
2022/11/28 01:42:23;;;;;;;;;;;;;;;14.00;100.00;100943.53;2094554;28;20036;-75
2022/11/28 01:43:59;;;;;;;9.88;5.90;;;;;;;13.94;100.00;100952.38;2093998;28;20281;-75
2022/11/28 01:45:23;;;;;;;10.15;5.47;;;;;;;13.91;100.00;100955.00;2079908;28;20093;-75
2022/11/28 01:46:45;;;;;;;10.18;6.13;;;;;;;13.89;100.00;100955.88;2077919;28;20201;-75
2022/11/28 01:48:10;;;;;;;9.48;6.00;;;;;;;13.90;100.00;100961.22;2085549;28;20099;-75
2022/11/28 01:49:37;;;;;;;11.30;6.50;;;;;;;13.91;100.00;100962.09;2090630;28;20037;-75
2022/11/28 01:51:05;;;;;;;9.93;5.95;;;;;;;13.92;100.00;100963.84;2096977;28;20113;-75
2022/11/28 01:52:28;;;;;;;9.00;5.53;;;;;;;13.90;100.00;100968.28;2086591;28;20166;-75
2022/11/28 01:53:51;;;;;;;9.30;6.50;;;;;;;13.90;100.00;100973.59;2091474;28;20041;-75
2022/11/28 01:55:19;;;;;;;10.65;5.72;;;;;;;13.93;100.00;100977.13;2094189;28;20447;-75
2022/11/28 01:56:45;;;;;;;9.52;5.53;;;;;;;13.95;100.00;100979.81;2085391;28;20491;-75
2022/11/28 01:58:08;;;;;;;9.15;5.80;;;;;;;13.96;100.00;100985.13;2085816;28;20140;-75
2022/11/28 01:59:34;;;;;;;8.30;5.53;;;;;;;13.97;100.00;100986.03;2085451;28;20056;-75
2022/11/28 02:00:57;;;;;;;8.13;5.05;;;;;;;13.94;100.00;100980.69;2099785;28;20126;-75
2022/11/28 02:02:29;;;;;;;8.55;5.57;;;;;;;13.92;100.00;100982.44;2087622;28;20048;-75
2022/11/28 02:03:53;;;;;;;7.78;5.47;;;;;;;13.89;100.00;100977.13;2085561;28;20044;-75
2022/11/28 02:05:17;;;;;;;14.50;8.65;;;;;;;13.89;100.00;100979.78;2101772;28;20094;-75
2022/11/28 02:06:40;;;;;;;22.90;14.60;;;;;;;13.93;100.00;100981.56;2077659;28;20111;-75
2022/11/28 02:08:03;;;;;;;19.50;12.80;;;;;;;13.98;100.00;100993.06;2081974;28;20374;-75
2022/11/28 02:09:24;;;;;;;17.95;11.95;;;;;;;14.01;100.00;100985.16;2089917;28;20508;-76
2022/11/28 02:11:06;;;;;;;16.83;10.23;;;;;;;14.05;100.00;100989.56;2094003;28;20044;-75
2022/11/28 02:12:44;;;;;;;11.32;7.03;;;;;;;14.06;100.00;100987.81;2088249;28;20053;-75
2022/11/28 02:14:15;;;;;;;14.38;8.43;;;;;;;14.03;100.00;100977.19;2095814;28;20070;-76
2022/11/28 02:16:02;;;;;;;11.80;7.03;;;;;;;13.98;100.00;100970.97;2084589;28;20710;-75
2022/11/28 02:17:36;;;;;;;10.85;6.38;;;;;;;13.96;100.00;100969.19;2093989;28;20060;-75
2022/11/28 02:19:13;;;;;;;9.13;6.30;;;;;;;13.95;100.00;100963.88;2087520;28;20049;-76
2022/11/28 02:20:59;;;;;;;14.65;6.65;;;;;;;13.93;100.00;100958.56;2097331;28;20036;-75
2022/11/28 02:22:26;;;;;;;35.47;21.23;;;;;;;13.93;100.00;100953.25;2096579;28;20040;-75
2022/11/28 02:24:08;;;;;;;10.75;7.60;;;;;;;13.93;100.00;100958.56;2082401;28;20786;-75
2022/11/28 02:26:30;;;;;;;12.57;7.05;;;;;;;13.93;100.00;100952.34;2096614;28;20520;-76
2022/11/28 02:28:36;;;;;;;11.93;7.65;;;;;;;13.95;100.00;100946.19;2076745;28;20113;-75
2022/11/28 02:30:11;;;;;;;11.40;6.88;;;;;;;13.97;100.00;100943.56;2080049;28;20149;-75
2022/11/28 02:32:07;;;;;;;8.45;5.93;;;;;;;14.02;100.00;100952.41;2093190;28;20051;-75
2022/11/28 02:33:32;;;;;;;10.07;6.25;;;;;;;14.08;100.00;100940.94;2095189;28;20071;-75
2022/11/28 02:34:58;;;;;;;9.73;6.07;;;;;;;14.10;100.00;100942.72;2095155;28;20089;-75
2022/11/28 02:36:29;;;;;;;8.77;5.88;;;;;;;14.09;100.00;100943.59;2093300;28;20652;-75
2022/11/28 02:38:02;;;;;;;9.82;5.75;;;;;;;14.07;100.00;100942.69;2102847;28;20043;-75
2022/11/28 02:39:32;;;;;;;9.43;6.18;;;;;;;14.06;100.00;100942.69;2103430;28;20071;-75
2022/11/28 02:41:01;;;;;;;11.20;5.97;;;;;;;14.02;100.00;100941.78;2086274;28;20029;-75
2022/11/28 02:42:30;;;;;;;9.32;5.65;;;;;;;14.00;100.00;100942.66;2079167;28;20063;-75
2022/11/28 02:43:57;;;;;;;8.52;5.30;;;;;;;13.96;100.00;100940.00;2092490;28;20047;-75
2022/11/28 02:45:28;;;;;;;8.25;6.10;;;;;;;13.94;100.00;100935.56;2088157;28;20056;-75
2022/11/28 02:46:56;;;;;;;11.32;6.03;;;;;;;13.93;100.00;100933.78;2095751;28;20044;-75
2022/11/28 02:48:27;;;;;;;7.78;5.13;;;;;;;13.91;100.00;100936.41;2086925;28;20049;-75
2022/11/28 02:49:55;;;;;;;7.32;5.40;;;;;;;13.92;100.00;100934.66;2093402;28;20044;-76
2022/11/28 02:51:23;;;;;;;10.77;6.35;;;;;;;13.96;100.00;100925.84;2094286;28;20051;-76
2022/11/28 02:52:48;;;;;;;9.40;6.75;;;;;;;14.01;100.00;100924.09;2082926;28;20041;-76
2022/11/28 02:54:14;;;;;;;10.45;6.40;;;;;;;14.09;100.00;100924.13;2083062;28;20681;-76
2022/11/28 02:55:39;;;;;;;8.63;6.28;;;;;;;14.16;100.00;100923.28;2084577;28;20048;-75
2022/11/28 02:57:01;;;;;;;9.18;5.60;;;;;;;14.23;100.00;100922.41;2087254;28;20051;-76
2022/11/28 02:58:23;;;;;;;8.88;6.07;;;;;;;14.27;100.00;100919.75;2087729;28;20108;-75
2022/11/28 02:59:49;;;;;;;9.05;6.53;;;;;;;14.31;100.00;100921.53;2079408;28;20498;-76
2022/11/28 03:01:19;;;;;;;13.23;6.72;;;;;;;14.34;100.00;100904.72;2081641;28;20041;-75
2022/11/28 03:02:43;;;;;;;9.77;6.13;;;;;;;14.35;100.00;100901.19;2100307;28;20067;-76
2022/11/28 03:04:32;;;;;;;8.95;5.85;;;;;;;14.36;100.00;100889.69;2095819;28;20041;-76
2022/11/28 03:05:59;;;;;;;11.23;6.25;;;;;;;14.35;100.00;100878.19;2104140;28;20079;-75
2022/11/28 03:07:36;;;;;;;11.30;5.65;;;;;;;14.32;100.00;100872.84;2095893;28;20131;-75
2022/11/28 03:09:15;;;;;;;12.25;6.90;;;;;;;14.27;100.00;100874.63;2095035;28;20151;-75
2022/11/28 03:10:45;;;;;;;14.70;8.80;;;;;;;14.23;100.00;100867.53;2087544;28;20036;-75
2022/11/28 03:12:20;;;;;;;14.75;9.60;;;;;;;14.19;100.00;100868.41;2077961;28;20045;-76
2022/11/28 03:13:55;;;;;;;11.20;7.30;;;;;;;14.17;100.00;100872.84;2100890;28;20070;-75
2022/11/28 03:15:21;;;;;;;9.50;6.00;;;;;;;14.18;100.00;100879.91;2082612;28;20049;-75
2022/11/28 03:16:50;;;;;;;8.25;5.43;;;;;;;14.19;100.00;100876.38;2093867;28;20044;-76
2022/11/28 03:18:19;;;;;;;9.48;6.35;;;;;;;14.22;100.00;100886.13;2094242;28;20059;-75
2022/11/28 03:19:56;;;;;;;12.50;6.38;;;;;;;14.24;100.00;100890.53;2100416;28;20125;-75
2022/11/28 03:21:26;;;;;;;9.35;5.85;;;;;;;14.27;100.00;100898.53;2087781;28;20445;-75
2022/11/28 03:23:03;;;;;;;9.30;5.88;;;;;;;14.29;100.00;100904.72;2101359;28;20040;-74
2022/11/28 03:24:32;;;;;;;9.10;5.57;;;;;;;14.32;100.00;100902.06;2085976;28;20049;-75
2022/11/28 03:26:01;;;;;;;9.07;5.82;;;;;;;14.34;100.00;100908.28;2090222;28;20119;-75
2022/11/28 03:27:30;;;;;;;9.77;5.47;;;;;;;14.34;100.00;100900.31;2084668;28;20136;-76
2022/11/28 03:29:00;;;;;;;9.55;5.85;;;;;;;14.32;100.00;100899.41;2086067;28;20168;-76
2022/11/28 03:30:28;;;;;;;9.85;6.30;;;;;;;14.32;100.00;100893.22;2084552;28;20086;-75
2022/11/28 03:31:54;;;;;;;10.77;7.03;;;;;;;14.29;100.00;100893.22;2092135;28;20172;-76
2022/11/28 03:33:20;;;;;;;11.07;7.25;;;;;;;14.28;100.00;100884.38;2093304;28;20059;-76
2022/11/28 03:34:50;;;;;;;9.77;6.55;;;;;;;14.26;100.00;100891.44;2081515;28;20739;-76
2022/11/28 03:36:17;;;;;;;10.55;7.43;;;;;;;14.24;100.00;100895.84;2093925;28;20843;-75
2022/11/28 03:37:43;;;;;;;14.32;8.30;;;;;;;14.24;100.00;100890.53;2087685;28;20041;-75
2022/11/28 03:39:09;;;;;;;12.48;7.53;;;;;;;14.23;100.00;100894.09;2090345;28;20045;-76
2022/11/28 03:40:35;;;;;;;20.73;13.05;;;;;;;14.23;100.00;100882.59;2092795;28;20048;-76
2022/11/28 03:42:03;;;;;;;13.52;8.88;;;;;;;14.24;100.00;100894.97;2080984;28;20064;-76
2022/11/28 03:43:32;;;;;;;14.95;8.48;;;;;;;14.29;100.00;100893.22;2090453;28;20071;-75
2022/11/28 03:44:57;;;;;;;13.65;9.13;;;;;;;14.30;100.00;100901.19;2094083;28;20036;-76
2022/11/28 03:46:23;;;;;;;11.20;6.93;;;;;;;14.34;100.00;100907.38;2086547;28;20507;-75
2022/11/28 03:47:46;;;;;;;12.98;8.65;;;;;;;14.37;100.00;100910.06;2091401;28;20052;-76
2022/11/28 03:49:12;;;;;;;8.32;5.95;;;;;;;14.42;100.00;100915.41;2091892;28;20044;-76
2022/11/28 03:50:42;;;;;;;13.77;7.72;;;;;;;14.44;100.00;100916.31;2092530;28;20135;-76
2022/11/28 03:52:06;;;;;;;13.43;9.68;;;;;;;14.45;100.00;100912.75;2096072;28;20052;-76
2022/11/28 03:53:35;;;;;;;13.18;9.27;;;;;;;14.44;100.00;100911.00;2080139;28;20143;-76
2022/11/28 03:55:01;;;;;;;14.18;9.77;;;;;;;14.45;100.00;100910.09;2092069;28;20692;-75
2022/11/28 03:56:29;;;;;;;18.40;11.73;;;;;;;14.45;100.00;100923.38;2084008;28;20041;-75
2022/11/28 03:57:57;;;;;;;17.70;11.43;;;;;;;14.46;100.00;100931.34;2091966;28;20920;-76
2022/11/28 03:59:25;;;;;;;14.02;8.07;;;;;;;14.48;100.00;100928.72;2093759;28;20070;-75
2022/11/28 04:00:55;;;;;;;11.60;8.48;;;;;;;14.48;100.00;100934.91;2084218;28;20044;-75
2022/11/28 04:02:23;;;;;;;19.70;11.27;;;;;;;14.49;100.00;100925.16;2084555;28;20461;-76
2022/11/28 04:03:53;;;;;;;20.63;12.80;;;;;;;14.52;100.00;100928.72;2099379;28;20052;-76
2022/11/28 04:05:23;;;;;;;43.45;28.35;;;;;;;14.54;100.00;100934.03;2078869;28;20050;-76
2022/11/28 04:06:54;;;;;;;35.83;23.77;;;;;;;14.56;100.00;100930.50;2080565;28;20048;-76
2022/11/28 04:08:20;;;;;;;29.45;19.88;;;;;;;14.57;100.00;100926.94;2093100;28;20044;-76
2022/11/28 04:09:48;;;;;;;27.98;18.38;;;;;;;14.58;100.00;100934.03;2086167;28;20049;-76
2022/11/28 04:11:15;;;;;;;20.52;14.38;;;;;;;14.60;100.00;100934.03;2080964;28;20052;-75
2022/11/28 04:12:51;;;;;;;13.88;8.88;;;;;;;14.61;100.00;100936.72;2082072;28;20103;-76
2022/11/28 04:14:22;;;;;;;13.07;8.75;;;;;;;14.60;100.00;100934.94;2086204;28;20147;-76
2022/11/28 04:15:51;;;;;;;12.43;8.95;;;;;;;14.59;100.00;100945.53;2094793;28;20051;-76
2022/11/28 04:17:19;;;;;;;16.73;10.00;;;;;;;14.59;100.00;100943.78;2094589;28;20119;-76
2022/11/28 04:18:53;;;;;;;13.82;8.55;;;;;;;14.60;100.00;100939.34;2085958;28;20121;-75
2022/11/28 04:20:24;;;;;;;14.32;7.93;;;;;;;14.59;100.00;100942.88;2093917;28;20051;-75
2022/11/28 04:21:54;;;;;;;10.57;6.93;;;;;;;14.54;100.00;100932.25;2093680;28;20120;-75
2022/11/28 04:23:19;;;;;;;10.82;6.95;;;;;;;14.51;100.00;100939.31;2090491;28;20631;-75
2022/11/28 04:24:48;;;;;;;14.32;7.68;;;;;;;14.46;100.00;100938.44;2088681;28;20110;-75
2022/11/28 04:26:14;;;;;;;13.35;8.95;;;;;;;14.42;100.00;100939.31;2093488;28;20063;-74
2022/11/28 04:27:41;;;;;;;13.82;7.55;;;;;;;14.37;100.00;100933.97;2095916;28;20377;-75
2022/11/28 04:29:07;;;;;;;13.85;9.32;;;;;;;14.36;100.00;100935.75;2081860;28;20453;-75
2022/11/28 04:30:29;;;;;;;11.75;7.53;;;;;;;14.37;100.00;100931.31;2083223;28;20075;-75
2022/11/28 04:31:56;;;;;;;12.60;9.45;;;;;;;14.38;100.00;100933.09;2090897;28;20044;-75
2022/11/28 04:33:22;;;;;;;16.00;7.85;;;;;;;14.41;100.00;100940.19;2085663;28;20128;-74
2022/11/28 04:34:46;;;;;;;15.23;9.02;;;;;;;14.42;100.00;100926.94;2093053;28;20500;-75
2022/11/28 04:36:12;;;;;;;21.75;10.75;;;;;;;14.44;100.00;100935.75;2083845;28;20046;-75
2022/11/28 04:37:38;;;;;;;19.95;11.85;;;;;;;14.43;100.00;100928.72;2093021;28;20140;-75
2022/11/28 04:39:02;;;;;;;21.92;11.75;;;;;;;14.42;100.00;100928.69;2085867;28;20136;-75
2022/11/28 04:40:26;;;;;;;24.08;14.40;;;;;;;14.42;100.00;100932.25;2083604;28;20440;-75
2022/11/28 04:41:53;;;;;;;22.35;14.48;;;;;;;14.41;100.00;100941.09;2092683;28;20041;-75
2022/11/28 04:43:22;;;;;;;24.17;15.18;;;;;;;14.41;100.00;100932.22;2096018;28;20044;-74
2022/11/28 04:44:50;;;;;;;24.60;14.43;;;;;;;14.41;100.00;100940.19;2095480;28;20045;-75
2022/11/28 04:46:15;;;;;;;20.65;14.00;;;;;;;14.43;100.00;100942.00;2095383;28;20049;-75
2022/11/28 04:47:36;;;;;;;20.35;13.80;;;;;;;14.45;100.00;100945.50;2084491;28;20665;-75
2022/11/28 04:48:59;;;;;;;21.23;14.00;;;;;;;14.46;100.00;100949.94;2090895;28;20084;-75
2022/11/28 04:50:24;;;;;;;20.63;13.85;;;;;;;14.48;100.00;100952.63;2091811;28;20071;-75
2022/11/28 04:51:53;;;;;;;21.27;14.57;;;;;;;14.50;100.00;100954.41;2086105;28;20051;-75
2022/11/28 04:53:25;;;;;;;22.42;19.10;;;;;;;14.55;100.00;100960.59;2084373;28;20115;-75
2022/11/28 04:54:55;;;;;;;24.40;16.10;;;;;;;14.56;100.00;100961.50;2080673;28;20686;-74
2022/11/28 04:56:21;;;;;;;22.48;15.75;;;;;;;14.56;100.00;100958.84;2085834;28;20049;-75
2022/11/28 04:57:47;;;;;;;18.63;13.73;;;;;;;14.57;100.00;100965.94;2086908;28;20146;-75
2022/11/28 04:59:11;;;;;;;18.60;13.70;;;;;;;14.58;100.00;100965.03;2086711;28;20506;-75
2022/11/28 05:00:35;;;;;;;19.83;13.70;;;;;;;14.58;100.00;100971.22;2084331;28;20140;-75
2022/11/28 05:02:02;;;;;;;18.70;13.60;;;;;;;14.58;100.00;100967.69;2083420;28;20186;-75
2022/11/28 05:03:28;;;;;;;21.70;13.48;;;;;;;14.59;100.00;100969.47;2081012;28;20552;-75
2022/11/28 05:04:54;;;;;;;24.20;15.43;;;;;;;14.58;100.00;100965.91;2092257;28;20710;-75
2022/11/28 05:06:25;;;;;;;23.20;16.05;;;;;;;14.60;100.00;100964.16;2088684;28;20471;-74
2022/11/28 05:07:48;;;;;;;22.63;14.60;;;;;;;14.61;100.00;100971.25;2086781;28;20033;-75
2022/11/28 05:09:13;;;;;;;20.65;12.63;;;;;;;14.64;100.00;100971.25;2091667;28;20082;-75
2022/11/28 05:10:34;;;;;;;23.70;15.50;;;;;;;14.65;100.00;100970.34;2088651;28;20044;-75
2022/11/28 05:11:56;;;;;;;24.08;16.15;;;;;;;14.68;100.00;100972.16;2085910;28;20123;-76
2022/11/28 05:13:19;;;;;;;25.63;15.38;;;;;;;14.70;100.00;100976.56;2097217;28;20048;-75
2022/11/28 05:14:41;;;;;;;23.15;13.73;;;;;;;14.70;100.00;100965.94;2089938;28;20049;-76
2022/11/28 05:16:04;;;;;;;32.33;18.65;;;;;;;14.70;100.00;100978.38;2092769;28;20447;-75
2022/11/28 05:17:27;;;;;;;32.40;19.15;;;;;;;14.73;100.00;100981.00;2088008;28;20136;-76
2022/11/28 05:18:49;;;;;;;29.05;17.77;;;;;;;14.75;100.00;100979.25;2077880;28;20091;-75
2022/11/28 05:20:11;;;;;;;26.05;16.85;;;;;;;14.76;100.00;100965.09;2089997;28;20053;-75
2022/11/28 05:21:33;;;;;;;24.90;16.73;;;;;;;14.75;100.00;100966.84;2092944;28;20540;-75
2022/11/28 05:22:55;;;;;;;20.02;13.73;;;;;;;14.73;100.00;100960.63;2085807;28;20069;-75
2022/11/28 05:24:19;;;;;;;26.05;15.73;;;;;;;14.73;100.00;100959.75;2084359;28;20111;-75
2022/11/28 05:25:40;;;;;;;24.25;15.05;;;;;;;14.73;100.00;100959.75;2100474;28;20117;-75
2022/11/28 05:27:03;;;;;;;17.42;12.57;;;;;;;14.74;100.00;100965.06;2091510;28;20106;-76
2022/11/28 05:28:25;;;;;;;22.70;12.43;;;;;;;14.76;100.00;100962.44;2086198;28;20040;-75
2022/11/28 05:29:47;;;;;;;23.90;15.25;;;;;;;14.75;100.00;100958.88;2088574;28;20094;-75
2022/11/28 05:31:09;;;;;;;24.30;14.10;;;;;;;14.76;100.00;100957.13;2086193;28;20052;-75
2022/11/28 05:32:32;;;;;;;23.30;13.57;;;;;;;14.79;100.00;100958.88;2086348;28;20140;-75
2022/11/28 05:33:55;;;;;;;24.92;15.82;;;;;;;14.81;100.00;100962.44;2088996;28;20063;-75
2022/11/28 05:35:16;;;;;;;20.88;12.23;;;;;;;14.83;100.00;100960.66;2094554;28;20079;-75
2022/11/28 05:36:39;;;;;;;21.65;14.05;;;;;;;14.87;100.00;100967.75;2089404;28;20041;-75
2022/11/28 05:38:00;;;;;;;17.88;10.65;;;;;;;14.89;100.00;100976.63;2094276;28;20104;-75
2022/11/28 05:39:25;;;;;;;17.98;10.23;;;;;;;14.92;100.00;100982.81;2095086;28;22003;-74
2022/11/28 05:40:48;;;;;;;17.75;11.65;;;;;;;14.96;100.00;100983.72;2094217;28;20052;-75
2022/11/28 05:42:10;;;;;;;20.13;11.30;;;;;;;14.97;100.00;100975.72;2089056;28;20104;-75
2022/11/28 05:43:33;;;;;;;21.33;10.80;;;;;;;14.99;100.00;100981.06;2087419;28;20136;-75
2022/11/28 05:44:54;;;;;;;17.90;11.18;;;;;;;14.99;100.00;100976.63;2092921;28;20092;-75
2022/11/28 05:46:17;;;;;;;17.58;10.48;;;;;;;15.01;100.00;100982.84;2077540;28;20045;-75
2022/11/28 05:47:40;;;;;;;17.15;10.85;;;;;;;15.03;100.00;100981.03;2085901;28;20072;-75
2022/11/28 05:49:02;;;;;;;18.23;12.10;;;;;;;15.05;100.00;100979.28;2092401;28;20496;-75
2022/11/28 05:50:25;;;;;;;18.58;11.82;;;;;;;15.10;100.00;100976.63;2095634;28;20479;-75
2022/11/28 05:51:47;;;;;;;22.40;11.90;;;;;;;15.15;100.00;100980.19;2085638;28;20098;-75
2022/11/28 05:53:10;;;;;;;20.48;11.38;;;;;;;15.20;100.00;100977.53;2083793;28;20060;-75
2022/11/28 05:54:34;;;;;;;15.73;10.27;;;;;;;15.24;100.00;100968.66;2090918;28;20041;-74
2022/11/28 05:55:57;;;;;;;15.43;9.25;;;;;;;15.28;100.00;100975.75;2087163;28;20041;-76
2022/11/28 05:57:19;;;;;;;20.73;10.60;;;;;;;15.32;100.00;100975.75;2088970;28;20411;-76
2022/11/28 05:58:42;;;;;;;23.88;14.02;;;;;;;15.36;100.00;100968.66;2102210;28;20407;-76
2022/11/28 06:00:05;;;;;;;24.38;13.27;;;;;;;15.40;100.00;100966.00;2085057;28;20565;-75
2022/11/28 06:01:33;;;;;;;76.63;37.20;;;;;;;15.42;100.00;100966.00;2092047;28;20595;-75
2022/11/28 06:02:55;;;;;;;43.05;21.90;;;;;;;15.44;100.00;100972.19;2096683;28;20100;-75
2022/11/28 06:04:17;;;;;;;62.55;28.45;;;;;;;15.45;100.00;100971.31;2087004;28;20062;-75
2022/11/28 06:05:41;;;;;;;65.47;30.50;;;;;;;15.50;100.00;100970.41;2081243;28;20045;-75
2022/11/28 06:07:03;;;;;;;35.90;18.85;;;;;;;15.56;100.00;100982.00;2084505;28;20048;-75
2022/11/28 06:08:26;;;;;;;36.42;19.73;;;;;;;15.62;100.00;100984.63;2091179;28;20101;-75
2022/11/28 06:09:50;;;;;;;30.42;17.67;;;;;;;15.69;100.00;100986.38;2094007;28;20052;-75
2022/11/28 06:11:13;;;;;;;32.85;19.25;;;;;;;15.76;100.00;100983.69;2090202;28;20052;-75
2022/11/28 06:12:35;;;;;;;40.85;21.08;;;;;;;15.83;100.00;100993.44;2088424;28;20060;-75
2022/11/28 06:13:58;;;;;;;19.92;14.48;;;;;;;15.88;100.00;100999.63;2087645;28;20045;-75
2022/11/28 06:15:19;;;;;;;16.27;12.30;;;;;;;15.93;100.00;100994.31;2096587;28;20557;-75
2022/11/28 06:16:42;;;;;;;25.17;17.20;;;;;;;15.96;100.00;100996.97;2083397;28;20057;-75
2022/11/28 06:18:05;;;;;;;20.55;14.82;;;;;;;16.00;100.00;100993.41;2085591;28;20147;-75
2022/11/28 06:19:27;;;;;;;29.30;18.52;;;;;;;16.05;100.00;100993.41;2081458;28;20037;-75
2022/11/28 06:20:49;;;;;;;43.00;21.20;;;;;;;16.08;100.00;100998.72;2093192;28;20052;-75
2022/11/28 06:22:11;;;;;;;56.00;23.20;;;;;;;16.11;100.00;100996.94;2093910;28;20075;-75
2022/11/28 06:23:33;;;;;;;86.70;31.52;;;;;;;16.14;100.00;100994.28;2097138;28;20403;-76
2022/11/28 06:24:57;;;;;;;74.95;25.50;;;;;;;16.22;100.00;100994.22;2077673;28;20051;-75
2022/11/28 06:26:21;;;;;;;63.65;24.10;;;;;;;16.27;100.00;100997.78;2085906;28;20049;-75
2022/11/28 06:27:44;;;;;;;51.60;22.77;;;;;;;16.32;100.00;100995.97;2087698;28;20086;-75
2022/11/28 06:29:06;;;;;;;29.88;13.57;;;;;;;16.36;100.00;100997.72;2088766;28;20421;-75
2022/11/28 06:30:29;;;;;;;23.80;11.15;;;;;;;16.37;100.00;100995.94;2079242;28;20041;-75